This is the latest recevied weather packets stored in our database for station/object KO5MO-11. If no packets are shown the sender has not sent any weather packets the latest 10 day(s).
| Time | Temp. | Humidity | Pressure | Rain* | Wind** | Luminosity | Snow |
|---|---|---|---|---|---|---|---|
| 1777579383 | 25.56° C | 37% | 1005.7 hPa | - | - | 784 W/m² | - |
| 1777579357 | 25.56° C | 38% | 1005.7 hPa | - | - | 781 W/m² | - |
| 1777579176 | 24.44° C | 40% | 1005.7 hPa | - | - | 767 W/m² | - |
| 1777579149 | 24.44° C | 40% | 1005.7 hPa | - | - | 766 W/m² | - |
| 1777579105 | 24.44° C | 40% | 1005.7 hPa | - | - | 763 W/m² | - |
| 1777578546 | 23.89° C | 36% | 1005.8 hPa | - | - | 751 W/m² | - |
| 1777569779 | 26.67° C | 32% | 1008.3 hPa | - | - | 804 W/m² | - |
| 1777569179 | 25° C | 37% | 1008.3 hPa | - | - | 776 W/m² | - |
| 1777569114 | 25° C | 38% | 1008.3 hPa | - | - | 770 W/m² | - |
| 1777568514 | 23.89° C | 35% | 1008.4 hPa | - | - | 758 W/m² | - |
| 1777567914 | 24.44° C | 34% | 1008.4 hPa | - | - | 768 W/m² | - |
| 1777567314 | 26.67° C | 33% | 1008.5 hPa | - | - | 802 W/m² | - |
| 1777566714 | 24.44° C | 37% | 1008.4 hPa | - | - | 761 W/m² | - |
| 1777566114 | 23.89° C | 34% | 1008.6 hPa | - | - | 759 W/m² | - |
| 1777565385 | 26.67° C | 32% | 1008.7 hPa | - | - | 803 W/m² | - |
| 1777564785 | 24.44° C | 35% | 1008.6 hPa | - | - | 769 W/m² | - |
| 1777557784 | 25° C | 33% | 1008.8 hPa | - | - | 779 W/m² | - |
| 1777557184 | 25° C | 33% | 1008.7 hPa | - | - | 776 W/m² | - |
| 1777556584 | 25° C | 34% | 1008.6 hPa | - | - | 778 W/m² | - |
| 1777555984 | 26.11° C | 31% | 1008.5 hPa | - | - | 796 W/m² | - |
| 1777555384 | 26.11° C | 33% | 1008.6 hPa | - | - | 790 W/m² | - |
| 1777554636 | 25° C | 34% | 1008.5 hPa | - | - | 773 W/m² | - |
| 1777554036 | 25° C | 34% | 1008.5 hPa | - | - | 775 W/m² | - |
| 1777553436 | 25.56° C | 34% | 1008.5 hPa | - | - | 780 W/m² | - |
| 1777552836 | 25° C | 33% | 1008.4 hPa | - | - | 775 W/m² | - |
* Rain since midnight (hover to see other rain measurements)
** Current wind speed in m/s (hover to see current wind gust speed)